createdAt,value
2024-05-09T00:00:22.514Z,84.9797
2024-05-09T00:01:18.931Z,84.9208
2024-05-09T00:02:19.790Z,85.0197
2024-05-09T00:03:22.305Z,85.0104
2024-05-09T00:04:22.234Z,84.7814
2024-05-09T00:05:24.431Z,84.8667
2024-05-09T00:06:24.375Z,85.0548
2024-05-09T00:07:26.423Z,85.0990
2024-05-09T00:08:28.827Z,85.1838
2024-05-09T00:09:31.022Z,85.1558
2024-05-09T00:10:36.970Z,85.1371
2024-05-09T00:11:34.145Z,85.0482
2024-05-09T00:12:36.326Z,84.9097
2024-05-09T00:13:38.506Z,84.8446
2024-05-09T00:14:40.748Z,84.8838
2024-05-09T00:15:42.905Z,84.9858
2024-05-09T00:16:45.086Z,85.0276
2024-05-09T00:17:47.417Z,85.0896
2024-05-09T00:18:47.467Z,85.0331
2024-05-09T00:19:48.991Z,85.0111
2024-05-09T00:20:49.789Z,84.9741
2024-05-09T00:21:49.574Z,84.8479
2024-05-09T00:22:51.776Z,84.8740
2024-05-09T00:23:52.351Z,85.0387
2024-05-09T00:24:53.238Z,85.0059
2024-05-09T00:25:55.427Z,85.0881
2024-05-09T00:26:57.629Z,85.0455
2024-05-09T00:27:59.820Z,85.1200
2024-05-09T00:29:02.219Z,85.1463
2024-05-09T00:30:04.207Z,85.1745
2024-05-09T00:31:04.175Z,85.2552
2024-05-09T00:32:06.414Z,85.3260
2024-05-09T00:33:07.859Z,85.3711
2024-05-09T00:34:07.094Z,85.3548
2024-05-09T00:35:07.055Z,85.2913
2024-05-09T00:36:09.346Z,85.1800
2024-05-09T00:37:11.553Z,85.2493
2024-05-09T00:38:13.780Z,85.3455
2024-05-09T00:39:15.987Z,85.4211
2024-05-09T00:40:26.568Z,85.5142
2024-05-09T00:41:19.928Z,85.6380
2024-05-09T00:42:19.844Z,85.8695
2024-05-09T00:43:22.070Z,85.8822
2024-05-09T00:44:24.518Z,85.8743
2024-05-09T00:45:24.503Z,85.8316
2024-05-09T00:46:24.487Z,85.7226
2024-05-09T00:47:26.886Z,85.7627
2024-05-09T00:48:27.188Z,85.7538
2024-05-09T00:49:28.520Z,85.7440
2024-05-09T00:50:35.230Z,85.6039
2024-05-09T00:51:29.411Z,85.7124
2024-05-09T00:52:31.612Z,85.6709
2024-05-09T00:53:33.950Z,85.5404
2024-05-09T00:54:33.938Z,85.4762
2024-05-09T00:55:36.150Z,85.4000
2024-05-09T00:56:36.283Z,85.4502
2024-05-09T00:57:38.580Z,85.3421
2024-05-09T00:58:40.800Z,85.2841
2024-05-09T00:59:43.018Z,85.2276
2024-05-09T01:00:45.422Z,85.2592
2024-05-09T01:01:48.407Z,85.1721
2024-05-09T01:02:48.357Z,85.0947
2024-05-09T01:03:51.672Z,85.0402
2024-05-09T01:04:51.996Z,85.0086
2024-05-09T01:05:52.032Z,84.9657
2024-05-09T01:06:52.006Z,84.9547
2024-05-09T01:07:54.158Z,84.9048
2024-05-09T01:08:56.437Z,84.8523
2024-05-09T01:09:58.776Z,84.7817
2024-05-09T01:11:01.386Z,84.7374
2024-05-09T01:12:02.523Z,84.6052
2024-05-09T01:13:02.868Z,84.5304
2024-05-09T01:14:05.202Z,84.4983
2024-05-09T01:15:07.521Z,84.4460
2024-05-09T01:16:12.821Z,84.4058
2024-05-09T01:17:11.307Z,84.3572
2024-05-09T01:18:12.477Z,84.2989
2024-05-09T01:19:13.789Z,84.3066
2024-05-09T01:20:20.052Z,84.3483
2024-05-09T01:21:14.968Z,84.3052
2024-05-09T01:22:14.927Z,84.2440
2024-05-09T01:23:17.224Z,84.3117
2024-05-09T01:24:17.926Z,84.3591
2024-05-09T01:25:20.265Z,84.2253
2024-05-09T01:26:22.387Z,84.1398
2024-05-09T01:27:24.724Z,84.1500
2024-05-09T01:28:26.792Z,84.1847
2024-05-09T01:29:29.166Z,84.2495
2024-05-09T01:30:35.111Z,84.2556
2024-05-09T01:31:32.222Z,84.2984
2024-05-09T01:32:34.649Z,84.3140
2024-05-09T01:33:34.724Z,84.3779
2024-05-09T01:34:34.622Z,84.2976
2024-05-09T01:35:36.962Z,84.3859
2024-05-09T01:36:36.766Z,84.4195
2024-05-09T01:37:39.857Z,84.3958
2024-05-09T01:38:39.624Z,84.3323
2024-05-09T01:39:41.704Z,84.2761
2024-05-09T01:40:43.937Z,84.2904
2024-05-09T01:41:46.181Z,84.3384
2024-05-09T01:42:48.429Z,84.3234
2024-05-09T01:43:50.604Z,84.3476
2024-05-09T01:44:52.760Z,84.3217
2024-05-09T01:45:54.926Z,84.2718
2024-05-09T01:46:57.247Z,84.2778
2024-05-09T01:47:59.741Z,84.2699
2024-05-09T01:48:59.833Z,84.3106
2024-05-09T01:49:59.745Z,84.3195
2024-05-09T01:51:01.949Z,84.2802
2024-05-09T01:52:01.936Z,84.2279
2024-05-09T01:53:04.161Z,84.3356
2024-05-09T01:54:06.464Z,84.3651
2024-05-09T01:55:08.554Z,84.3548
2024-05-09T01:56:10.795Z,84.3965
2024-05-09T01:57:12.847Z,84.4356
2024-05-09T01:58:15.110Z,84.4701
2024-05-09T01:59:17.252Z,84.3240
2024-05-09T02:00:30.157Z,84.3029
2024-05-09T02:01:20.303Z,84.2872
2024-05-09T02:02:22.627Z,84.2835
2024-05-09T02:03:25.038Z,84.3285
2024-05-09T02:04:25.051Z,84.3700
2024-05-09T02:05:25.029Z,84.3892
2024-05-09T02:06:27.099Z,84.3016
2024-05-09T02:07:29.190Z,84.3484
2024-05-09T02:08:31.490Z,84.4720
2024-05-09T02:09:31.533Z,84.4646
2024-05-09T02:10:33.875Z,84.4151
2024-05-09T02:11:33.996Z,84.3919
2024-05-09T02:12:33.877Z,84.4719
2024-05-09T02:13:33.740Z,84.5162
2024-05-09T02:14:36.054Z,84.4964
2024-05-09T02:15:37.022Z,84.5234
2024-05-09T02:16:39.374Z,84.5502
2024-05-09T02:17:40.511Z,84.4096
2024-05-09T02:18:40.586Z,84.3303
2024-05-09T02:19:41.430Z,84.2717
2024-05-09T02:20:44.148Z,84.3403
2024-05-09T02:21:44.121Z,84.2050
2024-05-09T02:22:46.386Z,84.1255
2024-05-09T02:23:46.372Z,84.1177
2024-05-09T02:24:48.540Z,84.2183
2024-05-09T02:25:50.738Z,84.1389
2024-05-09T02:26:52.888Z,84.1785
2024-05-09T02:27:55.056Z,84.1255
2024-05-09T02:28:57.323Z,84.1014
2024-05-09T02:29:59.492Z,84.2297
2024-05-09T02:31:01.698Z,84.3096
2024-05-09T02:32:02.977Z,84.2871
2024-05-09T02:33:03.463Z,84.3438
2024-05-09T02:34:03.420Z,84.3413
2024-05-09T02:35:03.423Z,84.3405
2024-05-09T02:36:03.365Z,84.4996
2024-05-09T02:37:05.734Z,84.5613
2024-05-09T02:38:06.692Z,84.6268
2024-05-09T02:39:06.756Z,84.5362
2024-05-09T02:40:14.273Z,84.4451
2024-05-09T02:41:10.083Z,84.5019
2024-05-09T02:42:12.333Z,84.5630
2024-05-09T02:43:14.566Z,84.6366
2024-05-09T02:44:16.896Z,84.6496
2024-05-09T02:45:16.807Z,84.6658
2024-05-09T02:46:19.172Z,84.5011
2024-05-09T02:47:21.757Z,84.4496
2024-05-09T02:48:21.821Z,84.5481
2024-05-09T02:49:24.221Z,84.5301
2024-05-09T02:50:33.060Z,84.6585
2024-05-09T02:51:26.870Z,84.6267
2024-05-09T02:52:27.293Z,84.5976
2024-05-09T02:53:27.157Z,84.5665
2024-05-09T02:54:29.323Z,84.5319
2024-05-09T02:55:31.605Z,84.4651
2024-05-09T02:56:34.045Z,84.6515
2024-05-09T02:57:36.174Z,84.6948
2024-05-09T02:58:38.440Z,84.6565
2024-05-09T02:59:40.730Z,84.7365
2024-05-09T03:00:42.831Z,84.8372
2024-05-09T03:01:42.492Z,84.7866
2024-05-09T03:02:42.735Z,84.8342
2024-05-09T03:03:42.730Z,84.8073
2024-05-09T03:04:42.759Z,84.8094
2024-05-09T03:05:45.394Z,84.8737
2024-05-09T03:06:45.457Z,84.9057
2024-05-09T03:07:46.409Z,84.9262
2024-05-09T03:08:46.270Z,84.9321
2024-05-09T03:09:48.389Z,84.8477
2024-05-09T03:10:50.584Z,84.8703
2024-05-09T03:11:52.981Z,84.9400
2024-05-09T03:12:52.928Z,84.8574
2024-05-09T03:13:55.099Z,84.9227
2024-05-09T03:14:57.200Z,84.8440
2024-05-09T03:15:59.537Z,84.7724
2024-05-09T03:17:01.915Z,84.7470
2024-05-09T03:18:02.142Z,84.7600
2024-05-09T03:19:02.465Z,84.7824
2024-05-09T03:20:05.110Z,84.8534
2024-05-09T03:21:04.355Z,84.7875
2024-05-09T03:22:06.660Z,84.8857
2024-05-09T03:23:06.795Z,84.9000
2024-05-09T03:24:09.167Z,84.8454
2024-05-09T03:25:11.351Z,84.8051
2024-05-09T03:26:13.665Z,84.8559
2024-05-09T03:27:15.908Z,84.8481
2024-05-09T03:28:15.763Z,84.8960
2024-05-09T03:29:18.078Z,84.9440
2024-05-09T03:30:29.289Z,84.9647
2024-05-09T03:31:18.947Z,84.8810
2024-05-09T03:32:21.488Z,84.8868
2024-05-09T03:33:21.835Z,84.9057
2024-05-09T03:34:22.058Z,84.8655
2024-05-09T03:35:25.005Z,84.9021
2024-05-09T03:36:24.993Z,84.8543
2024-05-09T03:37:25.464Z,84.9022
2024-05-09T03:38:26.242Z,85.0072
2024-05-09T03:39:28.530Z,85.0234
2024-05-09T03:40:31.401Z,84.9962
2024-05-09T03:41:31.480Z,85.0415
2024-05-09T03:42:31.932Z,84.9390
2024-05-09T03:43:31.822Z,84.9860
2024-05-09T03:44:34.217Z,84.9767
2024-05-09T03:45:34.191Z,84.9837
2024-05-09T03:46:36.417Z,84.9737
2024-05-09T03:47:38.848Z,84.8855
2024-05-09T03:48:38.968Z,84.9497
2024-05-09T03:49:41.206Z,84.9482
2024-05-09T03:50:43.610Z,85.0031
2024-05-09T03:51:44.082Z,85.0748
2024-05-09T03:52:44.024Z,85.0553
2024-05-09T03:53:44.273Z,85.0830
2024-05-09T03:54:46.434Z,85.0682
2024-05-09T03:55:48.620Z,85.1788
2024-05-09T03:56:50.938Z,85.1977
2024-05-09T03:57:53.271Z,85.1459
2024-05-09T03:58:55.592Z,85.1546
2024-05-09T03:59:57.744Z,85.1462
2024-05-09T04:01:00.963Z,85.2230
2024-05-09T04:02:01.995Z,85.1549
2024-05-09T04:03:02.330Z,85.1589
2024-05-09T04:04:02.510Z,85.1121
2024-05-09T04:05:04.893Z,85.1770
2024-05-09T04:06:05.411Z,85.1925
2024-05-09T04:07:05.273Z,85.1701
2024-05-09T04:08:07.710Z,85.0632
2024-05-09T04:09:07.639Z,85.0892
2024-05-09T04:10:16.994Z,85.0882
2024-05-09T04:11:10.992Z,85.0579
2024-05-09T04:12:12.023Z,84.9657
2024-05-09T04:13:13.015Z,84.9009
2024-05-09T04:14:15.293Z,84.8841
2024-05-09T04:15:15.580Z,84.8894
2024-05-09T04:16:17.755Z,84.8973
2024-05-09T04:17:20.595Z,84.9351
2024-05-09T04:18:22.442Z,84.9607
2024-05-09T04:19:24.640Z,85.0033
2024-05-09T04:20:33.909Z,84.9722
2024-05-09T04:21:25.563Z,84.9093
2024-05-09T04:22:27.718Z,84.8278
2024-05-09T04:23:30.009Z,84.8266
2024-05-09T04:24:29.998Z,84.7453
2024-05-09T04:25:32.275Z,84.7025
2024-05-09T04:26:34.627Z,84.7794
2024-05-09T04:27:37.832Z,84.7760
2024-05-09T04:28:37.707Z,84.7334
2024-05-09T04:29:40.028Z,84.7478
2024-05-09T04:30:42.684Z,84.7674
2024-05-09T04:31:43.022Z,84.7750
2024-05-09T04:32:45.427Z,84.8187
2024-05-09T04:33:46.732Z,84.6723
2024-05-09T04:34:46.752Z,84.7391
2024-05-09T04:35:48.999Z,84.6642
2024-05-09T04:36:51.180Z,84.6505
2024-05-09T04:37:51.469Z,84.7375
2024-05-09T04:38:53.677Z,84.8023
2024-05-09T04:39:55.920Z,84.8164
2024-05-09T04:40:58.103Z,84.6946
2024-05-09T04:42:00.293Z,84.6084
2024-05-09T04:43:02.382Z,84.6122
2024-05-09T04:44:04.548Z,84.5658
2024-05-09T04:45:06.692Z,84.5525
2024-05-09T04:46:08.902Z,84.5315
2024-05-09T04:47:11.986Z,84.4731
2024-05-09T04:48:12.177Z,84.5607
2024-05-09T04:49:12.106Z,84.5032
2024-05-09T04:50:21.182Z,84.3687
2024-05-09T04:51:15.381Z,84.4496
2024-05-09T04:52:18.376Z,84.5182
2024-05-09T04:53:18.428Z,84.3953
2024-05-09T04:54:26.209Z,84.5001
2024-05-09T04:55:19.449Z,84.4172
2024-05-09T04:56:21.644Z,84.4444
2024-05-09T04:57:23.880Z,84.3604
2024-05-09T04:58:25.980Z,84.4559
2024-05-09T04:59:28.328Z,84.4604
2024-05-09T05:00:35.035Z,84.4861
2024-05-09T05:01:29.292Z,84.3252
2024-05-09T05:02:31.616Z,84.3452
2024-05-09T05:03:34.036Z,84.3320
2024-05-09T05:04:33.998Z,84.3397
2024-05-09T05:05:36.266Z,84.3450
2024-05-09T05:06:38.544Z,84.1485
2024-05-09T05:07:40.648Z,84.2123
2024-05-09T05:08:42.863Z,84.1460
2024-05-09T05:09:45.024Z,84.2394
2024-05-09T05:10:47.945Z,84.0726
2024-05-09T05:11:49.572Z,84.2909
2024-05-09T05:12:51.521Z,84.3597
2024-05-09T05:13:52.475Z,84.3130
2024-05-09T05:14:54.957Z,84.4661
2024-05-09T05:15:54.860Z,84.4031
2024-05-09T05:16:55.772Z,84.4079
2024-05-09T05:17:55.884Z,84.4481
2024-05-09T05:18:56.130Z,84.4361
2024-05-09T05:19:57.250Z,84.3840
2024-05-09T05:20:57.397Z,84.3325
2024-05-09T05:21:57.448Z,84.2724
2024-05-09T05:22:58.256Z,84.2571
2024-05-09T05:24:00.560Z,84.1715
2024-05-09T05:25:02.877Z,84.1425
2024-05-09T05:26:03.305Z,84.0568
2024-05-09T05:27:04.240Z,83.9252
2024-05-09T05:28:06.568Z,83.9342
2024-05-09T05:29:08.905Z,83.9188
2024-05-09T05:30:17.628Z,83.8585
2024-05-09T05:31:13.097Z,83.9726
2024-05-09T05:32:13.194Z,83.9832
2024-05-09T05:33:13.582Z,83.9844
2024-05-09T05:34:14.123Z,83.9837
2024-05-09T05:35:16.401Z,84.0419
2024-05-09T05:36:16.346Z,84.2021
2024-05-09T05:37:18.505Z,84.3383
2024-05-09T05:38:24.827Z,84.3041
2024-05-09T05:39:21.866Z,84.3490
2024-05-09T05:40:32.356Z,84.2633
2024-05-09T05:41:25.452Z,84.1832
2024-05-09T05:42:25.753Z,84.0530
2024-05-09T05:43:28.035Z,83.8847
2024-05-09T05:44:30.432Z,83.8993
2024-05-09T05:45:30.358Z,83.9115
2024-05-09T05:46:32.683Z,83.7699
2024-05-09T05:47:35.218Z,83.7499
2024-05-09T05:48:35.331Z,83.7742
2024-05-09T05:49:37.820Z,83.7487
2024-05-09T05:50:38.779Z,83.7794
2024-05-09T05:51:38.954Z,83.8599
2024-05-09T05:52:41.245Z,83.8989
2024-05-09T05:53:42.288Z,83.9706
2024-05-09T05:54:42.282Z,83.8841
2024-05-09T05:55:44.718Z,83.9459
2024-05-09T05:56:44.996Z,83.8991
2024-05-09T05:57:45.135Z,83.8019
2024-05-09T05:58:47.378Z,83.7140
2024-05-09T05:59:49.677Z,83.6054
2024-05-09T06:00:52.413Z,83.6787
2024-05-09T06:01:52.365Z,83.6406
2024-05-09T06:02:52.462Z,83.6418
2024-05-09T06:03:53.484Z,83.7344
2024-05-09T06:04:54.046Z,83.7786
2024-05-09T06:05:54.120Z,83.7280
2024-05-09T06:06:56.353Z,83.6910
2024-05-09T06:07:58.698Z,83.6453
2024-05-09T06:08:58.982Z,83.5194
2024-05-09T06:10:01.280Z,83.4690
2024-05-09T06:11:03.751Z,83.3524
2024-05-09T06:12:03.831Z,83.1522
2024-05-09T06:13:05.365Z,83.1187
2024-05-09T06:14:05.282Z,83.0788
2024-05-09T06:15:07.649Z,82.9662
2024-05-09T06:16:09.959Z,82.8706
2024-05-09T06:17:12.399Z,82.7435
2024-05-09T06:18:13.014Z,82.6263
2024-05-09T06:19:13.218Z,82.5008
2024-05-09T06:20:20.560Z,82.2638
2024-05-09T06:21:15.482Z,82.2979
2024-05-09T06:22:15.960Z,82.0393
2024-05-09T06:23:18.214Z,81.8074
2024-05-09T06:24:18.598Z,81.6302
2024-05-09T06:25:20.839Z,81.5866
2024-05-09T06:26:23.223Z,81.4787
2024-05-09T06:27:23.963Z,80.9928
2024-05-09T06:28:23.788Z,80.8541
2024-05-09T06:29:26.144Z,80.6452
2024-05-09T06:30:34.902Z,80.3738
2024-05-09T06:31:27.010Z,80.0400
2024-05-09T06:32:29.321Z,79.8232
2024-05-09T06:33:29.585Z,79.5820
2024-05-09T06:34:29.783Z,79.4819
2024-05-09T06:35:29.858Z,79.2660
2024-05-09T06:36:30.402Z,79.3304
2024-05-09T06:37:30.303Z,79.1360
2024-05-09T06:38:32.591Z,78.7752
2024-05-09T06:39:32.543Z,78.7352
2024-05-09T06:40:38.323Z,78.5965
2024-05-09T06:41:35.849Z,78.2444
2024-05-09T06:42:38.070Z,78.2207
2024-05-09T06:43:40.131Z,78.2514
2024-05-09T06:44:42.291Z,78.0782
2024-05-09T06:45:44.481Z,78.0764
2024-05-09T06:46:46.868Z,77.7964
2024-05-09T06:47:46.954Z,77.8366
2024-05-09T06:48:50.503Z,77.9117
2024-05-09T06:49:50.623Z,77.4939
2024-05-09T06:50:50.726Z,77.2858
2024-05-09T06:51:50.751Z,76.5514
2024-05-09T06:52:52.915Z,75.7427
2024-05-09T06:53:55.067Z,76.2134
2024-05-09T06:54:57.356Z,76.9811
2024-05-09T06:55:59.630Z,76.7649
2024-05-09T06:57:01.932Z,76.9883
2024-05-09T06:58:03.993Z,78.1081
2024-05-09T06:59:06.325Z,78.5555
2024-05-09T07:00:15.466Z,78.0166
2024-05-09T07:01:09.600Z,77.6903
2024-05-09T07:02:09.635Z,77.4706
2024-05-09T07:03:10.078Z,77.5902
2024-05-09T07:04:11.303Z,77.6041
2024-05-09T07:05:11.627Z,77.5014
2024-05-09T07:06:11.656Z,77.4823
2024-05-09T07:07:14.045Z,77.4937
2024-05-09T07:08:16.554Z,77.2226
2024-05-09T07:09:16.789Z,77.4549
2024-05-09T07:10:22.143Z,77.7184
2024-05-09T07:11:18.025Z,77.6332
2024-05-09T07:12:19.090Z,77.4049
2024-05-09T07:13:19.107Z,77.2231
2024-05-09T07:14:21.552Z,77.5191
2024-05-09T07:15:21.795Z,77.5734
2024-05-09T07:16:21.800Z,77.4283
2024-05-09T07:17:24.240Z,77.4694
2024-05-09T07:18:24.504Z,77.2055
2024-05-09T07:19:25.012Z,77.2273
2024-05-09T07:20:32.491Z,77.1957
2024-05-09T07:21:26.093Z,76.9248
2024-05-09T07:22:25.976Z,76.9542
2024-05-09T07:23:26.044Z,76.5750
2024-05-09T07:24:26.042Z,76.5554
2024-05-09T07:25:28.369Z,76.5180
2024-05-09T07:26:28.329Z,76.0677
2024-05-09T07:27:29.916Z,76.1350
2024-05-09T07:28:30.073Z,75.7763
2024-05-09T07:29:34.714Z,75.4023
2024-05-09T07:30:34.765Z,75.0686
2024-05-09T07:31:35.162Z,75.0918
2024-05-09T07:32:37.567Z,75.1664
2024-05-09T07:33:38.570Z,74.9075
2024-05-09T07:34:38.634Z,74.9357
2024-05-09T07:35:38.839Z,75.1151
2024-05-09T07:36:39.886Z,75.0625
2024-05-09T07:37:42.215Z,74.9261
2024-05-09T07:38:42.242Z,74.7408
2024-05-09T07:39:42.552Z,74.7301
2024-05-09T07:40:42.575Z,74.7875
2024-05-09T07:41:44.912Z,74.6113
2024-05-09T07:42:44.995Z,74.8699
2024-05-09T07:43:47.329Z,74.9995
2024-05-09T07:44:49.573Z,74.9605
2024-05-09T07:45:54.468Z,74.9523
2024-05-09T07:48:13.727Z,74.5055
2024-05-09T07:50:34.746Z,74.1029
2024-05-09T07:53:22.002Z,74.2676
2024-05-09T07:54:01.395Z,74.3067
2024-05-09T07:55:02.035Z,74.6321
2024-05-09T07:56:02.171Z,74.7461
2024-05-09T07:57:03.385Z,74.7647
2024-05-09T07:58:03.485Z,74.6960
2024-05-09T07:59:05.812Z,74.1347
2024-05-09T08:00:06.680Z,74.3709
2024-05-09T08:01:07.043Z,74.1052
2024-05-09T08:02:07.086Z,73.6507
2024-05-09T08:03:07.013Z,73.6540
2024-05-09T08:04:09.274Z,73.6169
2024-05-09T08:05:09.388Z,75.1437
2024-05-09T08:06:10.390Z,74.9412
2024-05-09T08:07:12.697Z,74.7646
2024-05-09T08:08:14.997Z,74.1033
2024-05-09T08:09:21.013Z,73.6394
2024-05-09T08:10:22.107Z,73.6790
2024-05-09T08:11:18.310Z,74.4417
2024-05-09T08:12:20.612Z,74.4967
2024-05-09T08:13:23.135Z,73.9426
2024-05-09T08:14:23.196Z,73.3946
2024-05-09T08:15:25.486Z,73.1472
2024-05-09T08:16:25.578Z,73.1356
2024-05-09T08:17:25.569Z,72.8936
2024-05-09T08:18:27.990Z,72.4767
2024-05-09T08:19:28.085Z,72.1975
2024-05-09T08:20:33.720Z,71.9450
2024-05-09T08:21:31.482Z,71.9985
2024-05-09T08:22:32.439Z,72.0511
2024-05-09T08:23:34.700Z,72.0595
2024-05-09T08:24:36.984Z,72.3241
2024-05-09T08:25:39.196Z,72.5687
2024-05-09T08:26:41.466Z,72.8212
2024-05-09T08:27:42.555Z,72.7461
2024-05-09T08:28:42.416Z,72.8325
2024-05-09T08:29:44.713Z,72.8077
2024-05-09T08:30:44.840Z,73.0068
2024-05-09T08:31:45.839Z,73.1135
2024-05-09T08:32:48.353Z,73.1601
2024-05-09T08:33:48.668Z,73.4729
2024-05-09T08:34:48.721Z,73.1294
2024-05-09T08:35:50.024Z,72.8535
2024-05-09T08:36:52.376Z,72.8851
2024-05-09T08:37:53.069Z,73.0955
2024-05-09T08:38:53.062Z,73.1210
2024-05-09T08:39:53.204Z,73.4422
2024-05-09T08:40:55.593Z,73.4834
2024-05-09T08:41:55.650Z,73.0337
2024-05-09T08:42:57.874Z,73.0718
2024-05-09T08:44:00.121Z,72.9034
2024-05-09T08:45:02.303Z,73.0145
2024-05-09T08:46:02.393Z,72.7774
2024-05-09T08:47:02.981Z,72.7557
2024-05-09T08:48:05.421Z,72.0955
2024-05-09T08:49:06.058Z,72.1378
2024-05-09T08:50:08.570Z,71.5196
2024-05-09T08:51:06.583Z,71.2915
2024-05-09T08:52:07.546Z,71.5328
2024-05-09T08:53:07.856Z,71.2012
2024-05-09T08:54:07.937Z,70.8586
2024-05-09T08:55:10.363Z,70.6169
2024-05-09T08:56:10.502Z,70.3752
2024-05-09T08:57:12.721Z,69.9747
2024-05-09T08:58:15.353Z,69.8233
2024-05-09T08:59:16.168Z,69.6638
2024-05-09T09:00:29.049Z,69.0483
2024-05-09T09:01:19.702Z,69.0195
2024-05-09T09:02:21.293Z,69.2607
2024-05-09T09:03:21.850Z,69.3062
2024-05-09T09:04:24.259Z,69.2419
2024-05-09T09:05:24.426Z,69.2870
2024-05-09T09:06:24.357Z,69.4433
2024-05-09T09:07:26.784Z,69.4122
2024-05-09T09:08:27.683Z,69.6186
2024-05-09T09:09:27.996Z,70.0190
2024-05-09T09:10:32.360Z,70.3670
2024-05-09T09:11:30.827Z,70.7705
2024-05-09T09:12:33.107Z,70.7945
2024-05-09T09:13:35.350Z,70.8099
2024-05-09T09:14:37.596Z,70.8284
2024-05-09T09:15:37.664Z,71.1814
2024-05-09T09:16:39.938Z,71.2943
2024-05-09T09:17:42.387Z,70.7419
2024-05-09T09:18:42.644Z,70.4130
2024-05-09T09:19:42.584Z,70.0977
2024-05-09T09:20:45.005Z,70.0487
2024-05-09T09:21:45.060Z,69.6984
2024-05-09T09:22:45.122Z,69.6063
2024-05-09T09:23:47.527Z,69.8106
2024-05-09T09:24:49.724Z,69.7198
2024-05-09T09:25:50.863Z,69.6277
2024-05-09T09:26:51.713Z,69.3593
2024-05-09T09:27:53.991Z,69.1886
2024-05-09T09:28:54.037Z,68.9047
2024-05-09T09:29:56.322Z,68.2399
2024-05-09T09:30:56.238Z,67.7891
2024-05-09T09:31:58.466Z,67.1982
2024-05-09T09:33:01.009Z,66.6698
2024-05-09T09:34:01.283Z,66.2954
2024-05-09T09:35:01.395Z,66.6488
2024-05-09T09:36:01.531Z,66.8845
2024-05-09T09:37:03.823Z,67.2819
2024-05-09T09:38:03.823Z,67.4381
2024-05-09T09:39:06.062Z,67.1777
2024-05-09T09:40:08.949Z,67.4480
2024-05-09T09:41:08.895Z,67.6758
2024-05-09T09:42:09.804Z,67.9595
2024-05-09T09:43:12.212Z,67.7779
2024-05-09T09:44:12.279Z,67.6034
2024-05-09T09:45:14.632Z,67.4691
2024-05-09T09:46:17.121Z,67.4740
2024-05-09T09:47:17.373Z,67.4048
2024-05-09T09:48:19.748Z,67.3363
2024-05-09T09:49:21.538Z,66.7016
2024-05-09T09:50:27.706Z,66.4447
2024-05-09T09:51:22.620Z,66.3156
2024-05-09T09:52:23.028Z,66.9671
2024-05-09T09:53:22.931Z,66.5001
2024-05-09T09:54:25.231Z,66.5053
2024-05-09T09:55:26.062Z,66.3045
2024-05-09T09:56:25.959Z,65.8822
2024-05-09T09:57:26.221Z,65.4540
2024-05-09T09:58:28.563Z,64.3755
2024-05-09T09:59:28.524Z,64.0166
2024-05-09T10:00:33.290Z,63.2671
2024-05-09T10:01:31.911Z,62.8288
2024-05-09T10:02:32.172Z,62.6128
2024-05-09T10:03:32.342Z,63.5305
2024-05-09T10:04:33.417Z,62.8741
2024-05-09T10:05:33.717Z,61.7241
2024-05-09T10:06:33.755Z,61.1073
2024-05-09T10:07:35.924Z,60.5390
2024-05-09T10:08:38.038Z,60.4433
2024-05-09T10:09:40.283Z,60.1203
2024-05-09T10:10:42.690Z,59.2429
2024-05-09T10:12:44.854Z,57.5566
2024-05-09T10:13:47.071Z,56.9714
2024-05-09T10:14:49.367Z,57.3296
2024-05-09T10:15:52.146Z,57.1983
2024-05-09T10:16:52.295Z,57.5633
2024-05-09T10:17:54.712Z,57.9247
2024-05-09T10:18:54.822Z,58.1158
2024-05-09T10:19:54.864Z,58.2527
2024-05-09T10:20:54.932Z,59.2037
2024-05-09T10:21:57.258Z,58.7577
2024-05-09T10:22:57.328Z,58.7127
2024-05-09T10:23:57.645Z,58.8640
2024-05-09T10:25:01.505Z,58.2041
2024-05-09T10:26:03.790Z,57.8254
2024-05-09T10:27:03.616Z,57.2449
2024-05-09T10:28:04.135Z,57.6610
2024-05-09T10:29:06.439Z,57.3047
2024-05-09T10:30:14.412Z,57.3301
2024-05-09T10:31:09.701Z,56.6491
2024-05-09T10:32:11.920Z,56.8904
2024-05-09T10:33:13.008Z,57.4317
2024-05-09T10:34:13.172Z,57.6110
2024-05-09T10:35:13.146Z,56.8607
2024-05-09T10:36:13.319Z,56.8179
2024-05-09T10:37:15.695Z,57.3056
2024-05-09T10:38:15.637Z,58.0346
2024-05-09T10:39:16.014Z,58.2522
2024-05-09T10:40:25.778Z,58.1147
2024-05-09T10:41:19.112Z,58.1005
2024-05-09T10:42:21.311Z,59.1797
2024-05-09T10:43:21.336Z,59.0887
2024-05-09T10:44:21.153Z,59.1761
2024-05-09T10:45:23.487Z,59.2959
2024-05-09T10:46:25.759Z,58.9261
2024-05-09T10:47:28.199Z,59.4989
2024-05-09T10:48:29.323Z,59.6549
2024-05-09T10:49:29.267Z,59.6232
2024-05-09T10:50:34.238Z,59.6821
2024-05-09T10:51:33.226Z,61.2535
2024-05-09T10:52:35.519Z,63.2673
2024-05-09T10:53:37.859Z,62.7863
2024-05-09T10:54:37.894Z,63.0272
2024-05-09T10:55:37.881Z,63.4576
2024-05-09T10:56:37.768Z,61.6834
2024-05-09T10:57:39.986Z,61.2419
2024-05-09T10:58:42.401Z,60.1629
2024-05-09T10:59:42.371Z,59.4284
2024-05-09T11:00:44.794Z,58.5576
2024-05-09T11:01:45.018Z,57.8305
2024-05-09T11:02:45.053Z,57.1024
2024-05-09T11:03:47.572Z,56.4064
2024-05-09T11:04:47.951Z,56.0038
2024-05-09T11:05:47.997Z,54.9179
2024-05-09T11:06:48.073Z,54.9045
2024-05-09T11:07:50.570Z,54.8786
2024-05-09T11:08:50.486Z,54.0035
2024-05-09T11:09:52.903Z,53.5720
2024-05-09T11:10:53.039Z,54.1636
2024-05-09T11:11:53.226Z,53.9411
2024-05-09T11:12:53.293Z,53.8072
2024-05-09T11:13:55.546Z,53.3879
2024-05-09T11:14:57.860Z,53.6970
2024-05-09T11:16:00.179Z,54.6366
2024-05-09T11:17:00.276Z,54.9978
2024-05-09T11:18:02.782Z,55.0689
2024-05-09T11:19:04.916Z,55.0677
2024-05-09T11:20:10.773Z,55.7914
2024-05-09T11:21:06.106Z,56.0601
2024-05-09T11:22:08.570Z,55.6048
2024-05-09T11:23:08.578Z,53.4651
2024-05-09T11:24:11.482Z,50.2277
2024-05-09T11:25:11.853Z,48.0526
2024-05-09T11:26:12.590Z,48.7655
2024-05-09T11:27:12.522Z,49.6391
2024-05-09T11:28:15.046Z,50.6240
2024-05-09T11:29:17.935Z,51.1321
2024-05-09T11:30:24.190Z,51.1213
2024-05-09T11:31:18.255Z,51.4791
2024-05-09T11:32:18.302Z,52.4966
2024-05-09T11:33:19.220Z,52.9005
2024-05-09T11:34:19.373Z,53.0862
2024-05-09T11:35:19.637Z,53.9115
2024-05-09T11:36:19.555Z,54.1889
2024-05-09T11:37:19.635Z,54.5545
2024-05-09T11:38:19.584Z,54.8321
2024-05-09T11:39:21.779Z,54.6382
2024-05-09T11:40:26.035Z,55.9478
2024-05-09T11:41:25.076Z,58.3964
2024-05-09T11:42:25.206Z,58.1618
2024-05-09T11:43:25.475Z,57.1386
2024-05-09T11:44:25.341Z,56.5649
2024-05-09T11:45:27.554Z,56.5862
2024-05-09T11:46:29.703Z,55.7015
2024-05-09T11:47:32.075Z,55.3427
2024-05-09T11:48:32.331Z,55.5419
2024-05-09T11:49:32.613Z,55.3221
2024-05-09T11:50:35.498Z,55.2164
2024-05-09T11:51:33.432Z,54.9826
2024-05-09T11:52:35.665Z,54.6296
2024-05-09T11:53:37.818Z,55.8241
2024-05-09T11:54:40.114Z,57.8303
2024-05-09T11:55:42.284Z,58.2768
2024-05-09T11:56:44.513Z,57.6795
2024-05-09T11:57:46.848Z,57.6542
2024-05-09T11:58:47.136Z,57.6646
2024-05-09T11:59:50.061Z,58.0407
2024-05-09T12:00:50.044Z,58.2812
2024-05-09T12:01:50.295Z,57.9568
2024-05-09T12:02:50.318Z,57.7852
2024-05-09T12:03:52.743Z,57.9500
2024-05-09T12:04:52.814Z,57.8498
2024-05-09T12:05:55.060Z,57.2956
2024-05-09T12:06:57.326Z,56.7771
2024-05-09T12:07:59.450Z,56.6015
2024-05-09T12:09:01.622Z,56.4195
2024-05-09T12:10:06.080Z,55.7803
2024-05-09T12:11:05.753Z,54.4992
2024-05-09T12:12:08.038Z,54.1488
2024-05-09T12:13:10.400Z,53.7751
2024-05-09T12:14:12.676Z,53.3241
2024-05-09T12:15:14.996Z,53.3198
2024-05-09T12:16:17.301Z,52.8948
2024-05-09T12:17:19.609Z,53.2691
2024-05-09T12:18:21.801Z,53.4664
2024-05-09T12:19:24.049Z,53.0307
2024-05-09T12:20:34.727Z,53.5034
2024-05-09T12:21:27.285Z,53.9867
2024-05-09T12:22:29.455Z,54.0213
2024-05-09T12:23:31.641Z,53.5730
2024-05-09T12:24:33.872Z,53.6840
2024-05-09T12:25:36.970Z,54.1868
2024-05-09T12:26:39.133Z,54.6359